Time;durP1;ratioP1;P1;durP2;ratioP2;P2;SDS_P1;SDS_P2;PMS_P1;PMS_P2;Temp;Humidity;BMP_temperature;BMP_pressure;BME280_temperature;BME280_humidity;BME280_pressure;Samples;Min_cycle;Max_cycle;Signal;HPM_P1;HPM_P2
2021/04/21 00:00:40;;;;;;;15.70;13.40;;;11.10;84.40;;;;;;4941975;28;20284;-82
2021/04/21 00:03:14;;;;;;;15.60;13.13;;;11.00;84.70;;;;;;4928369;28;20252;-82
2021/04/21 00:05:42;;;;;;;16.03;13.73;;;11.00;84.70;;;;;;4925026;29;20202;-81
2021/04/21 00:08:11;;;;;;;16.67;14.47;;;11.00;84.90;;;;;;4918161;29;20497;-84
2021/04/21 00:10:40;;;;;;;18.60;15.53;;;11.00;84.90;;;;;;4927110;29;20200;-80
2021/04/21 00:13:09;;;;;;;17.13;14.93;;;11.00;84.90;;;;;;4921365;29;20437;-80
2021/04/21 00:15:37;;;;;;;18.07;14.37;;;11.00;84.90;;;;;;4928375;29;20607;-82
2021/04/21 00:18:08;;;;;;;19.43;15.57;;;10.90;85.00;;;;;;4921145;29;20625;-83
2021/04/21 00:20:37;;;;;;;19.47;16.00;;;10.80;85.30;;;;;;4921451;29;20242;-82
2021/04/21 00:23:11;;;;;;;18.27;16.27;;;10.90;85.30;;;;;;4929416;29;20233;-82
2021/04/21 00:25:41;;;;;;;18.83;16.50;;;10.90;85.30;;;;;;4937343;29;20413;-81
2021/04/21 00:28:10;;;;;;;20.40;16.77;;;10.90;85.40;;;;;;4939302;28;20214;-82
2021/04/21 00:30:40;;;;;;;20.50;16.77;;;10.80;85.50;;;;;;4926765;29;20212;-81
2021/04/21 00:33:16;;;;;;;24.37;17.03;;;10.80;85.70;;;;;;4927779;28;20591;-85
2021/04/21 00:35:45;;;;;;;20.77;17.50;;;10.70;85.60;;;;;;4929505;29;20219;-81
2021/04/21 00:38:17;;;;;;;20.17;17.77;;;10.60;86.00;;;;;;4919848;29;20293;-82
2021/04/21 00:40:53;;;;;;;24.53;18.23;;;10.50;86.30;;;;;;4930869;29;20333;-80
2021/04/21 00:43:29;;;;;;;22.30;19.67;;;10.50;86.50;;;;;;4940565;28;20231;-84
2021/04/21 00:46:09;;;;;;;21.00;18.37;;;10.50;86.60;;;;;;4947941;28;20198;-80
2021/04/21 00:48:51;;;;;;;23.00;18.47;;;10.60;86.40;;;;;;4928167;29;20672;-82
2021/04/21 00:51:26;;;;;;;21.67;17.83;;;10.60;86.60;;;;;;4925896;29;20207;-82
2021/04/21 00:54:06;;;;;;;23.50;18.77;;;10.40;86.70;;;;;;4930027;29;20521;-82
2021/04/21 00:56:43;;;;;;;23.70;18.93;;;10.40;86.90;;;;;;4926365;29;20312;-82
2021/04/21 00:59:33;;;;;;;23.03;17.87;;;10.40;87.20;;;;;;4929574;29;20204;-81
2021/04/21 01:02:04;;;;;;;22.27;19.37;;;10.30;87.00;;;;;;4933275;29;20213;-84
2021/04/21 01:04:33;;;;;;;23.67;19.60;;;10.20;87.10;;;;;;4931051;28;20207;-82
2021/04/21 01:07:01;;;;;;;23.93;18.93;;;10.20;87.60;;;;;;4927559;29;20202;-81
2021/04/21 01:09:33;;;;;;;22.17;19.67;;;10.20;87.70;;;;;;4930085;29;20202;-82
2021/04/21 01:12:05;;;;;;;23.53;18.43;;;10.00;87.70;;;;;;4931133;29;20214;-84
2021/04/21 01:14:38;;;;;;;25.87;19.90;;;10.10;88.10;;;;;;4933824;29;20207;-84
2021/04/21 01:17:08;;;;;;;26.60;19.13;;;10.10;88.10;;;;;;4941161;29;20545;-83
2021/04/21 01:19:49;;;;;;;25.27;20.33;;;10.10;88.20;;;;;;4942178;28;20206;-80
2021/04/21 01:22:27;;;;;;;24.90;19.40;;;10.10;88.40;;;;;;4946368;29;20182;-83
2021/04/21 01:25:10;;;;;;;27.43;20.33;;;10.20;88.20;;;;;;4946681;28;20209;-82
2021/04/21 01:27:58;;;;;;;24.37;19.07;;;10.20;87.90;;;;;;4928207;29;20218;-82
2021/04/21 01:30:28;;;;;;;23.10;19.40;;;10.20;87.90;;;;;;4936353;29;20211;-82
2021/04/21 01:33:02;;;;;;;24.77;20.40;;;10.20;88.00;;;;;;4943452;28;20212;-82
2021/04/21 01:35:30;;;;;;;25.17;19.93;;;10.10;88.30;;;;;;4943863;29;20233;-83
2021/04/21 01:38:03;;;;;;;25.20;20.43;;;10.10;88.50;;;;;;4940428;29;20246;-81
2021/04/21 01:40:36;;;;;;;24.50;20.90;;;10.10;88.50;;;;;;4936922;29;20276;-81
2021/04/21 01:43:11;;;;;;;23.93;19.80;;;10.10;88.50;;;;;;4931620;29;20229;-82
2021/04/21 01:45:42;;;;;;;23.70;19.97;;;10.10;88.70;;;;;;4928610;29;20572;-82
2021/04/21 01:48:16;;;;;;;24.13;20.20;;;10.00;88.90;;;;;;4928679;29;20205;-83
2021/04/21 01:50:47;;;;;;;27.40;21.67;;;10.00;89.50;;;;;;4930155;29;20209;-81
2021/04/21 01:53:29;;;;;;;28.17;21.30;;;9.90;89.10;;;;;;4935146;29;20207;-84
2021/04/21 01:56:06;;;;;;;29.03;23.37;;;9.80;90.00;;;;;;4932068;29;20207;-82
2021/04/21 01:58:48;;;;;;;31.17;23.43;;;9.80;90.10;;;;;;4930745;29;20207;-83
2021/04/21 02:01:32;;;;;;;27.87;23.47;;;9.70;90.00;;;;;;4929691;29;20202;-85
2021/04/21 02:04:06;;;;;;;29.50;23.20;;;9.70;90.00;;;;;;4929215;29;20775;-82
2021/04/21 02:06:53;;;;;;;27.17;22.33;;;9.50;90.20;;;;;;4928653;29;20222;-82
2021/04/21 02:09:57;;;;;;;31.60;25.77;;;9.80;90.10;;;;;;4925485;28;20648;-81
2021/04/21 02:12:52;;;;;;;29.47;23.53;;;9.60;90.30;;;;;;4942162;29;20289;-83
2021/04/21 02:15:29;;;;;;;31.37;25.47;;;9.70;90.30;;;;;;4925201;29;20273;-82
2021/04/21 02:18:05;;;;;;;31.43;25.13;;;9.70;90.50;;;;;;4929738;29;20301;-82
2021/04/21 02:20:40;;;;;;;31.50;25.03;;;9.70;90.40;;;;;;4937048;28;20403;-84
2021/04/21 02:23:18;;;;;;;32.97;25.90;;;9.70;90.30;;;;;;4942372;28;20293;-84
2021/04/21 02:26:06;;;;;;;29.87;25.00;;;9.70;90.50;;;;;;4932778;29;20234;-81
2021/04/21 02:28:45;;;;;;;30.73;24.97;;;9.70;90.50;;;;;;4926319;29;20210;-82
2021/04/21 02:31:29;;;;;;;32.73;25.77;;;9.80;90.50;;;;;;4929989;29;20622;-83
2021/04/21 02:34:06;;;;;;;31.47;25.00;;;9.90;90.60;;;;;;4929839;29;20231;-83
2021/04/21 02:36:44;;;;;;;34.60;26.83;;;9.90;90.60;;;;;;4931402;29;20223;-82
2021/04/21 02:39:19;;;;;;;33.57;26.70;;;9.90;90.70;;;;;;4927001;29;20218;-82
2021/04/21 02:41:56;;;;;;;35.73;27.47;;;9.90;90.60;;;;;;4930305;28;20731;-82
2021/04/21 02:44:37;;;;;;;36.20;27.57;;;9.90;90.70;;;;;;4925661;29;20237;-86
2021/04/21 02:47:13;;;;;;;35.33;27.93;;;9.90;90.80;;;;;;4925064;28;20206;-80
2021/04/21 02:49:54;;;;;;;33.77;27.00;;;9.90;90.90;;;;;;4928413;29;20295;-82
2021/04/21 02:52:34;;;;;;;35.03;27.77;;;9.90;90.80;;;;;;4925137;29;20559;-83
2021/04/21 02:55:14;;;;;;;37.80;29.37;;;10.00;91.00;;;;;;4930577;28;20221;-82
2021/04/21 02:57:54;;;;;;;34.60;27.23;;;9.90;91.20;;;;;;4927287;29;20213;-82
2021/04/21 03:00:28;;;;;;;36.00;28.50;;;9.90;91.30;;;;;;4931887;29;20210;-82
2021/04/21 03:03:06;;;;;;;36.83;30.03;;;9.90;92.10;;;;;;4925790;29;20327;-83
2021/04/21 03:05:38;;;;;;;39.77;31.13;;;9.80;92.20;;;;;;4926388;29;20403;-81
2021/04/21 03:08:11;;;;;;;38.90;31.40;;;9.70;92.30;;;;;;4923083;29;20199;-82
2021/04/21 03:10:47;;;;;;;39.93;30.30;;;9.70;92.70;;;;;;4926021;29;20248;-80
2021/04/21 03:13:17;;;;;;;41.67;31.40;;;9.80;92.60;;;;;;4926681;29;20202;-82
2021/04/21 03:15:50;;;;;;;38.33;30.10;;;9.80;92.50;;;;;;4941229;28;20190;-81
2021/04/21 03:18:21;;;;;;;36.57;29.03;;;9.80;92.30;;;;;;4943644;28;20194;-84
2021/04/21 03:20:54;;;;;;;38.13;30.83;;;9.80;92.20;;;;;;4946406;28;20208;-81
2021/04/21 03:23:26;;;;;;;37.87;29.83;;;9.80;91.90;;;;;;4929500;28;20238;-81
2021/04/21 03:25:58;;;;;;;45.50;30.87;;;9.80;91.90;;;;;;4929679;29;20235;-83
2021/04/21 03:28:29;;;;;;;34.70;30.17;;;9.70;92.30;;;;;;4923099;29;20213;-82
2021/04/21 03:31:02;;;;;;;38.43;30.00;;;9.60;92.10;;;;;;4933192;29;20239;-81
2021/04/21 03:33:38;;;;;;;37.17;29.93;;;9.50;92.00;;;;;;4929046;29;20212;-82
2021/04/21 03:36:08;;;;;;;38.70;30.53;;;9.30;92.40;;;;;;4930655;29;20205;-81
2021/04/21 03:38:36;;;;;;;39.03;32.97;;;9.20;92.30;;;;;;4925943;29;20254;-82
2021/04/21 03:41:06;;;;;;;42.00;31.27;;;9.20;93.90;;;;;;4927933;29;20206;-83
2021/04/21 03:43:35;;;;;;;40.27;32.23;;;9.20;95.00;;;;;;4932036;29;20233;-83
2021/04/21 03:46:04;;;;;;;42.33;32.20;;;9.10;95.30;;;;;;4928499;29;20205;-82
2021/04/21 03:48:35;;;;;;;38.27;30.67;;;9.30;95.70;;;;;;4924161;29;20221;-83
2021/04/21 03:51:05;;;;;;;40.93;32.83;;;9.60;95.40;;;;;;4932122;29;20202;-84
2021/04/21 03:53:36;;;;;;;39.73;31.27;;;9.50;94.60;;;;;;4927048;29;20709;-83
2021/04/21 03:56:06;;;;;;;39.67;31.33;;;9.60;94.20;;;;;;4932753;29;20206;-82
2021/04/21 03:58:35;;;;;;;41.67;31.87;;;9.70;93.90;;;;;;4936171;28;20206;-82
2021/04/21 04:01:06;;;;;;;41.40;31.70;;;9.60;93.80;;;;;;4937988;28;20392;-82
2021/04/21 04:03:45;;;;;;;38.23;31.33;;;9.80;93.50;;;;;;4936972;29;20240;-82
2021/04/21 04:06:17;;;;;;;36.43;30.63;;;9.90;92.90;;;;;;4946166;28;20214;-81
2021/04/21 04:08:49;;;;;;;38.80;30.63;;;9.90;92.30;;;;;;4940740;28;20476;-81
2021/04/21 04:11:25;;;;;;;40.17;31.27;;;9.90;92.30;;;;;;4942790;28;20222;-82
2021/04/21 04:14:01;;;;;;;40.27;31.37;;;9.80;92.20;;;;;;4944288;28;20373;-82
2021/04/21 04:16:31;;;;;;;40.83;31.87;;;9.90;92.40;;;;;;4942707;28;20673;-83
2021/04/21 04:19:00;;;;;;;40.50;32.93;;;10.00;92.50;;;;;;4925189;29;20237;-82
2021/04/21 04:21:33;;;;;;;39.53;31.57;;;10.00;92.80;;;;;;4934660;29;20210;-82
2021/04/21 04:24:02;;;;;;;39.73;32.27;;;10.00;93.20;;;;;;4937455;29;20274;-83
2021/04/21 04:26:32;;;;;;;44.33;33.27;;;10.00;93.50;;;;;;4939347;28;20720;-81
2021/04/21 04:29:02;;;;;;;41.43;32.60;;;9.90;93.90;;;;;;4934532;28;20245;-81
2021/04/21 04:31:34;;;;;;;43.53;34.23;;;9.90;93.90;;;;;;4934762;28;20217;-81
2021/04/21 04:34:05;;;;;;;43.37;33.90;;;10.00;94.00;;;;;;4935323;29;20202;-84
2021/04/21 04:36:36;;;;;;;43.17;35.13;;;9.90;94.50;;;;;;4926517;28;20635;-81
2021/04/21 04:39:05;;;;;;;44.90;35.33;;;10.00;94.50;;;;;;4926353;28;20217;-81
2021/04/21 04:41:34;;;;;;;43.40;33.93;;;9.90;94.30;;;;;;4925483;29;20713;-82
2021/04/21 04:44:03;;;;;;;43.30;35.10;;;9.80;94.00;;;;;;4925388;29;20308;-82
2021/04/21 04:46:32;;;;;;;43.97;35.33;;;10.00;93.60;;;;;;4923480;29;20511;-85
2021/04/21 04:49:06;;;;;;;44.07;34.23;;;10.00;93.40;;;;;;4921056;29;20210;-82
2021/04/21 04:51:36;;;;;;;42.83;34.43;;;10.20;93.30;;;;;;4929793;29;20445;-82
2021/04/21 04:54:06;;;;;;;43.20;35.00;;;10.10;93.10;;;;;;4925671;28;20237;-84
2021/04/21 04:56:35;;;;;;;42.27;33.47;;;10.10;93.10;;;;;;4923195;29;20214;-83
2021/04/21 04:59:04;;;;;;;42.33;33.33;;;10.30;92.70;;;;;;4911111;28;20218;-83
2021/04/21 05:01:44;;;;;;;41.90;33.50;;;10.30;92.30;;;;;;4921703;28;20222;-82
2021/04/21 05:04:16;;;;;;;44.90;33.20;;;10.40;92.40;;;;;;4915452;29;20699;-84
2021/04/21 05:06:50;;;;;;;38.33;32.80;;;10.40;92.20;;;;;;4907787;29;20220;-81
2021/04/21 05:09:21;;;;;;;39.13;32.67;;;10.50;92.10;;;;;;4918380;28;20280;-82
2021/04/21 05:11:53;;;;;;;39.67;32.07;;;10.60;92.10;;;;;;4927856;28;20224;-80
2021/04/21 05:14:23;;;;;;;40.73;32.40;;;10.70;91.70;;;;;;4918511;29;20467;-82
2021/04/21 05:17:45;;;;;;;36.00;30.43;;;10.80;91.40;;;;;;4914814;29;20214;-83
2021/04/21 05:20:56;;;;;;;38.07;31.53;;;10.90;91.10;;;;;;4920075;28;20359;-82
2021/04/21 05:24:11;;;;;;;36.13;29.83;;;11.00;91.10;;;;;;4930616;28;20237;-83
2021/04/21 05:27:23;;;;;;;35.30;28.93;;;11.10;90.40;;;;;;4924745;28;20205;-82
2021/04/21 05:30:26;;;;;;;34.00;29.13;;;11.30;90.40;;;;;;4915194;29;20310;-82
2021/04/21 05:33:42;;;;;;;32.90;28.93;;;11.50;90.30;;;;;;4914050;29;20214;-81
2021/04/21 05:36:47;;;;;;;32.10;27.10;;;11.60;90.10;;;;;;4830364;29;20217;-83
2021/04/21 05:39:50;;;;;;;31.30;27.07;;;11.70;89.60;;;;;;4912204;28;20220;-81
2021/04/21 05:43:17;;;;;;;31.80;24.67;;;11.70;89.10;;;;;;4917030;28;20214;-84
2021/04/21 05:46:37;;;;;;;30.67;24.90;;;11.70;88.40;;;;;;4928933;29;20266;-85
2021/04/21 05:49:36;;;;;;;28.93;24.30;;;11.60;88.40;;;;;;4921541;28;20222;-81
2021/04/21 05:52:34;;;;;;;27.97;23.87;;;11.60;88.30;;;;;;4932961;28;20898;-83
2021/04/21 05:55:20;;;;;;;30.07;22.83;;;11.60;88.30;;;;;;4929447;28;20484;-84
2021/04/21 05:58:32;;;;;;;27.03;23.20;;;11.70;88.30;;;;;;4911382;28;20218;-82
2021/04/21 06:01:21;;;;;;;30.00;23.20;;;11.80;87.60;;;;;;4919625;29;20229;-82
2021/04/21 06:03:53;;;;;;;29.07;22.73;;;11.90;87.40;;;;;;4915036;28;20249;-81
2021/04/21 06:06:21;;;;;;;28.57;23.03;;;12.00;87.10;;;;;;4922763;28;20417;-85
2021/04/21 06:08:50;;;;;;;26.97;22.43;;;12.10;86.90;;;;;;4916068;28;20202;-83
2021/04/21 06:11:20;;;;;;;28.37;22.40;;;12.30;86.80;;;;;;4917235;29;20277;-83
2021/04/21 06:13:51;;;;;;;26.60;22.10;;;12.40;86.30;;;;;;4914636;28;20210;-82
2021/04/21 06:16:21;;;;;;;24.77;20.33;;;12.50;86.00;;;;;;4921614;28;20203;-81
2021/04/21 06:18:58;;;;;;;28.47;22.20;;;12.60;85.80;;;;;;4908441;29;20225;-84
2021/04/21 06:21:29;;;;;;;26.37;21.87;;;12.50;85.70;;;;;;4911313;29;20218;-83
2021/04/21 06:24:02;;;;;;;27.77;21.77;;;12.60;85.40;;;;;;4880325;29;20237;-83
2021/04/21 06:26:32;;;;;;;25.50;20.80;;;12.70;85.40;;;;;;4923321;28;20253;-83
2021/04/21 06:29:06;;;;;;;29.43;23.70;;;12.70;85.60;;;;;;4926375;29;20202;-84
2021/04/21 06:31:38;;;;;;;26.93;22.73;;;12.70;85.30;;;;;;4926883;29;20904;-83
2021/04/21 06:34:08;;;;;;;28.80;22.63;;;12.70;85.30;;;;;;4919979;29;20206;-81
2021/04/21 06:36:42;;;;;;;26.47;22.40;;;12.70;85.10;;;;;;4930069;28;20329;-85
2021/04/21 06:39:12;;;;;;;26.20;22.30;;;12.70;85.20;;;;;;4931385;28;20216;-84
2021/04/21 06:41:41;;;;;;;27.20;21.40;;;12.70;85.10;;;;;;4923347;29;20213;-83
2021/04/21 06:44:10;;;;;;;28.70;21.97;;;12.70;85.00;;;;;;4914293;28;20230;-84
2021/04/21 06:46:44;;;;;;;28.17;21.60;;;12.80;85.00;;;;;;4927755;29;20614;-82
2021/04/21 06:49:13;;;;;;;27.97;22.13;;;12.80;85.00;;;;;;4924161;28;20202;-84
2021/04/21 06:51:42;;;;;;;26.87;20.83;;;12.80;84.80;;;;;;4938512;28;20271;-85
2021/04/21 06:54:12;;;;;;;26.67;21.00;;;12.90;85.00;;;;;;4932285;28;20221;-83
2021/04/21 06:56:40;;;;;;;24.87;20.60;;;13.10;85.00;;;;;;4931008;28;20202;-83
2021/04/21 06:59:19;;;;;;;28.87;22.90;;;13.20;84.20;;;;;;4926966;28;20633;-85
2021/04/21 07:01:50;;;;;;;23.77;21.07;;;13.30;84.60;;;;;;4928006;28;20210;-84
2021/04/21 07:04:20;;;;;;;23.63;19.13;;;13.50;84.10;;;;;;4934416;28;20254;-85
2021/04/21 07:06:49;;;;;;;24.80;19.67;;;13.40;83.40;;;;;;4927349;29;20681;-82
2021/04/21 07:09:20;;;;;;;21.67;19.30;;;13.30;83.60;;;;;;4922803;29;20210;-84
2021/04/21 07:11:56;;;;;;;28.43;22.03;;;13.40;84.00;;;;;;4926161;28;20295;-81
2021/04/21 07:14:27;;;;;;;26.43;20.90;;;13.50;84.00;;;;;;4921458;28;20783;-84
2021/04/21 07:16:58;;;;;;;25.07;22.43;;;13.60;84.00;;;;;;4929574;28;20202;-83
2021/04/21 07:19:27;;;;;;;25.60;22.07;;;13.50;83.80;;;;;;4931864;28;20653;-83
2021/04/21 07:21:56;;;;;;;28.10;22.10;;;13.70;84.00;;;;;;4931312;28;20516;-83
2021/04/21 07:24:30;;;;;;;24.77;22.10;;;13.70;83.70;;;;;;4925218;28;20489;-83
2021/04/21 07:26:59;;;;;;;24.03;20.70;;;13.70;83.80;;;;;;4922335;28;20649;-82
2021/04/21 07:29:27;;;;;;;27.17;20.40;;;13.80;83.70;;;;;;4921231;28;20202;-85
2021/04/21 07:31:56;;;;;;;27.47;20.20;;;13.90;83.00;;;;;;4925792;29;20210;-81
2021/04/21 07:34:28;;;;;;;20.23;17.20;;;14.00;83.00;;;;;;4923627;29;20210;-81
2021/04/21 07:36:57;;;;;;;21.17;17.30;;;14.10;82.80;;;;;;4926771;29;20202;-85
2021/04/21 07:39:33;;;;;;;17.80;15.90;;;14.40;82.60;;;;;;4930769;28;20201;-84
2021/04/21 07:42:00;;;;;;;18.93;14.77;;;14.60;82.50;;;;;;4933572;28;20206;-84
2021/04/21 07:44:30;;;;;;;20.90;17.10;;;14.80;81.70;;;;;;4937056;28;20487;-81
2021/04/21 07:47:12;;;;;;;17.40;14.60;;;14.70;81.30;;;;;;4942025;28;20205;-83
2021/04/21 07:49:44;;;;;;;17.07;14.93;;;14.80;81.10;;;;;;4937500;28;20511;-84
2021/04/21 07:52:23;;;;;;;18.07;15.60;;;14.70;80.90;;;;;;4947027;28;20261;-82
2021/04/21 07:55:06;;;;;;;20.77;15.30;;;14.70;81.00;;;;;;4942067;28;21299;-85
2021/04/21 07:57:37;;;;;;;15.87;14.20;;;14.70;80.80;;;;;;4935971;28;21159;-83
2021/04/21 08:00:07;;;;;;;16.00;13.57;;;14.60;80.80;;;;;;4943245;28;20198;-83
2021/04/21 08:02:36;;;;;;;15.87;13.90;;;14.70;80.90;;;;;;4935910;28;20205;-84
2021/04/21 08:05:08;;;;;;;15.50;13.87;;;14.70;80.20;;;;;;4940902;28;20422;-84
2021/04/21 08:07:40;;;;;;;15.33;13.73;;;14.70;79.90;;;;;;4925483;28;20209;-85
2021/04/21 08:10:22;;;;;;;17.20;14.53;;;14.60;80.20;;;;;;4928778;28;20492;-83
2021/04/21 08:12:50;;;;;;;18.33;14.93;;;14.60;80.50;;;;;;4937102;28;20272;-82
2021/04/21 08:15:19;;;;;;;18.30;15.70;;;14.80;81.00;;;;;;4940221;28;20233;-84
2021/04/21 08:17:56;;;;;;;22.60;15.90;;;15.00;80.40;;;;;;4932174;28;20843;-85
2021/04/21 08:20:26;;;;;;;22.57;17.40;;;15.20;80.60;;;;;;4930526;28;20886;-84
2021/04/21 08:22:55;;;;;;;21.43;17.07;;;15.30;80.50;;;;;;4927595;28;20562;-84
2021/04/21 08:25:24;;;;;;;21.73;17.77;;;15.30;80.40;;;;;;4928419;29;20229;-84
2021/04/21 08:27:52;;;;;;;20.07;17.73;;;15.40;80.50;;;;;;4929235;28;20202;-85
2021/04/21 08:30:20;;;;;;;24.13;18.53;;;15.40;80.60;;;;;;4940697;28;20443;-85
2021/04/21 08:32:48;;;;;;;24.17;19.63;;;15.20;80.60;;;;;;4934072;29;20244;-84
2021/04/21 08:35:16;;;;;;;24.90;19.97;;;14.80;81.20;;;;;;4931572;28;20233;-84
2021/04/21 08:37:45;;;;;;;23.63;21.00;;;14.90;81.20;;;;;;4930193;28;20254;-86
2021/04/21 08:40:15;;;;;;;28.90;21.67;;;14.30;81.50;;;;;;4936714;28;20499;-84
2021/04/21 08:42:48;;;;;;;23.90;21.37;;;14.00;82.10;;;;;;4928963;28;20202;-83
2021/04/21 08:45:15;;;;;;;26.03;21.53;;;13.80;82.40;;;;;;4915762;29;20625;-83
2021/04/21 08:47:44;;;;;;;25.17;21.30;;;13.80;82.70;;;;;;4913896;28;20332;-82
2021/04/21 08:50:12;;;;;;;25.67;21.07;;;13.70;82.80;;;;;;4914801;29;20707;-83
2021/04/21 08:52:48;;;;;;;28.37;21.93;;;13.80;82.90;;;;;;4908066;28;20214;-85
2021/04/21 08:55:16;;;;;;;26.37;21.27;;;14.00;82.90;;;;;;4919600;28;20198;-83
2021/04/21 08:57:45;;;;;;;26.50;22.03;;;14.10;82.70;;;;;;4901897;28;20338;-82
2021/04/21 09:00:15;;;;;;;25.53;20.63;;;14.20;82.90;;;;;;4912659;28;20395;-81
2021/04/21 09:02:43;;;;;;;24.10;21.13;;;14.20;82.50;;;;;;4904706;28;20217;-83
2021/04/21 09:05:13;;;;;;;22.53;20.10;;;14.20;82.70;;;;;;4903367;28;20382;-83
2021/04/21 09:07:41;;;;;;;27.30;21.33;;;14.20;82.70;;;;;;4902385;29;20218;-81
2021/04/21 09:10:10;;;;;;;26.70;20.67;;;14.30;82.50;;;;;;4905650;29;20202;-81
2021/04/21 09:12:39;;;;;;;24.47;21.07;;;14.20;82.50;;;;;;4909264;28;20443;-83
2021/04/21 09:15:10;;;;;;;24.87;21.87;;;14.40;82.80;;;;;;4902268;29;20224;-82
2021/04/21 09:17:44;;;;;;;25.03;21.13;;;14.70;82.90;;;;;;4923995;28;20632;-82
2021/04/21 09:20:13;;;;;;;24.00;21.03;;;14.90;82.40;;;;;;4936769;28;20458;-83
2021/04/21 09:23:00;;;;;;;30.87;22.03;;;14.90;81.80;;;;;;4913596;28;20209;-84
2021/04/21 09:25:32;;;;;;;25.93;21.53;;;14.60;82.10;;;;;;4915449;28;20237;-84
2021/04/21 09:28:00;;;;;;;28.93;22.90;;;14.50;82.60;;;;;;4907907;29;20618;-83
2021/04/21 09:30:29;;;;;;;26.43;22.20;;;14.50;82.80;;;;;;4919265;29;20203;-82
2021/04/21 09:32:58;;;;;;;30.17;23.53;;;14.60;83.00;;;;;;4925841;28;20221;-82
2021/04/21 09:35:28;;;;;;;28.97;23.97;;;14.70;83.00;;;;;;4910327;28;20213;-84
2021/04/21 09:38:08;;;;;;;26.83;22.50;;;14.90;82.90;;;;;;4905154;29;20213;-83
2021/04/21 09:40:42;;;;;;;27.37;23.20;;;15.00;82.90;;;;;;4913130;29;20291;-82
2021/04/21 09:43:12;;;;;;;28.47;22.43;;;15.00;82.30;;;;;;4915325;28;20205;-81
2021/04/21 09:45:45;;;;;;;24.97;21.20;;;15.10;82.70;;;;;;4927027;29;20225;-83
2021/04/21 09:48:18;;;;;;;26.53;22.30;;;15.10;81.80;;;;;;4916076;29;21094;-84
2021/04/21 09:50:56;;;;;;;26.53;21.70;;;15.00;81.90;;;;;;4919763;29;20210;-86
2021/04/21 09:53:27;;;;;;;24.83;21.07;;;15.10;81.90;;;;;;4920226;28;21038;-85
2021/04/21 09:56:04;;;;;;;25.17;19.67;;;15.10;81.60;;;;;;4912606;28;20504;-83
2021/04/21 09:58:34;;;;;;;19.23;16.70;;;15.10;80.80;;;;;;4916919;28;20206;-83
2021/04/21 10:01:17;;;;;;;21.60;16.73;;;15.20;80.80;;;;;;4914041;28;20232;-84
2021/04/21 10:03:45;;;;;;;18.90;14.80;;;15.30;80.30;;;;;;4915536;28;21365;-85
2021/04/21 10:06:20;;;;;;;22.37;16.20;;;15.40;79.40;;;;;;4921140;29;20201;-83
2021/04/21 10:08:49;;;;;;;20.63;15.43;;;15.50;79.20;;;;;;4934878;28;20451;-82
2021/04/21 10:11:19;;;;;;;21.00;16.23;;;15.50;78.80;;;;;;4927019;29;20278;-86
2021/04/21 10:13:52;;;;;;;21.87;15.77;;;15.50;78.70;;;;;;4930869;29;20224;-84
2021/04/21 10:16:22;;;;;;;13.87;12.37;;;15.50;78.60;;;;;;4925699;28;20285;-83
2021/04/21 10:18:50;;;;;;;17.27;11.97;;;15.80;77.80;;;;;;4926104;28;20305;-83
2021/04/21 10:21:20;;;;;;;16.07;12.70;;;15.80;76.60;;;;;;4920679;29;20822;-84
2021/04/21 10:23:51;;;;;;;16.67;11.80;;;15.90;76.60;;;;;;4923886;29;20214;-85
2021/04/21 10:26:21;;;;;;;17.73;12.40;;;16.00;76.50;;;;;;4923608;29;20206;-85
2021/04/21 10:28:49;;;;;;;15.47;12.70;;;16.10;75.50;;;;;;4931883;29;20536;-85
2021/04/21 10:31:18;;;;;;;18.97;13.50;;;16.20;75.80;;;;;;4929262;28;20316;-83
2021/04/21 10:33:51;;;;;;;16.40;13.30;;;16.30;76.30;;;;;;4934654;28;20232;-84
2021/04/21 10:36:19;;;;;;;16.03;12.90;;;16.50;76.60;;;;;;4928366;28;20221;-82
2021/04/21 10:38:47;;;;;;;15.90;10.90;;;16.70;75.00;;;;;;4927378;28;20210;-84
2021/04/21 10:41:25;;;;;;;10.70;7.70;;;16.70;73.60;;;;;;4917428;29;20553;-83
2021/04/21 10:44:08;;;;;;;10.10;7.57;;;16.60;68.60;;;;;;4916124;28;20588;-84
2021/04/21 10:47:10;;;;;;;9.97;8.17;;;16.30;68.20;;;;;;4909804;29;20740;-82
2021/04/21 10:49:50;;;;;;;10.10;7.83;;;16.20;68.40;;;;;;4821554;29;20220;-84
2021/04/21 10:52:20;;;;;;;13.93;8.77;;;16.00;68.70;;;;;;4901640;29;21453;-84
2021/04/21 10:54:50;;;;;;;12.87;9.43;;;16.10;69.40;;;;;;4910854;28;20226;-84
2021/04/21 10:57:31;;;;;;;17.17;11.17;;;16.30;69.70;;;;;;4909272;29;20210;-83
2021/04/21 11:00:17;;;;;;;14.43;10.93;;;16.50;70.30;;;;;;4924164;28;20530;-85
2021/04/21 11:02:50;;;;;;;15.00;11.90;;;16.70;70.40;;;;;;4918883;28;20225;-83
2021/04/21 11:05:27;;;;;;;14.17;10.67;;;16.70;69.60;;;;;;4916709;29;20229;-81
2021/04/21 11:08:01;;;;;;;15.30;11.00;;;16.60;69.00;;;;;;4923913;29;20499;-86
2021/04/21 11:10:41;;;;;;;12.70;9.03;;;16.60;70.00;;;;;;4929339;28;20228;-84
2021/04/21 11:13:11;;;;;;;10.57;8.33;;;16.70;69.10;;;;;;4932123;29;20223;-86
2021/04/21 11:15:44;;;;;;;12.20;9.87;;;16.80;69.30;;;;;;4929623;28;20543;-84
2021/04/21 11:18:30;;;;;;;12.67;9.80;;;17.00;68.30;;;;;;4925664;29;20204;-84
2021/04/21 11:21:06;;;;;;;11.47;9.30;;;16.70;68.20;;;;;;4932596;28;20381;-84
2021/04/21 11:24:05;;;;;;;12.97;8.87;;;16.40;68.50;;;;;;4930884;28;20201;-82
2021/04/21 11:26:41;;;;;;;12.87;8.60;;;16.10;69.00;;;;;;4923593;29;20297;-84
2021/04/21 11:29:13;;;;;;;8.93;7.80;;;16.00;68.40;;;;;;4928542;29;20545;-85
2021/04/21 11:32:10;;;;;;;9.43;7.60;;;16.10;68.10;;;;;;4933568;28;20201;-84
2021/04/21 11:34:40;;;;;;;7.70;6.23;;;16.10;67.20;;;;;;4933966;28;20202;-84
2021/04/21 11:37:17;;;;;;;9.77;6.57;;;16.10;66.70;;;;;;4936593;28;20208;-83
2021/04/21 11:40:06;;;;;;;9.00;6.10;;;16.10;65.80;;;;;;4937291;28;20446;-83
2021/04/21 11:42:45;;;;;;;8.87;6.20;;;16.20;65.70;;;;;;4932471;28;20419;-82
2021/04/21 11:45:25;;;;;;;7.50;5.67;;;16.30;65.50;;;;;;4926749;29;20313;-83
2021/04/21 11:47:56;;;;;;;7.07;6.30;;;16.40;64.80;;;;;;4925182;29;20210;-84
2021/04/21 11:50:29;;;;;;;11.13;6.40;;;16.30;64.10;;;;;;4917969;28;20671;-83
2021/04/21 11:53:15;;;;;;;9.50;5.90;;;16.50;64.40;;;;;;4919073;29;20205;-83
2021/04/21 11:55:54;;;;;;;7.93;5.77;;;16.60;64.50;;;;;;4916115;29;20643;-81
2021/04/21 11:58:25;;;;;;;11.37;6.53;;;16.60;63.80;;;;;;4915440;29;20204;-85
2021/04/21 12:00:56;;;;;;;8.87;6.80;;;16.70;64.30;;;;;;4919979;29;20214;-85
2021/04/21 12:03:26;;;;;;;8.47;6.13;;;16.70;64.40;;;;;;4903316;29;20218;-84
2021/04/21 12:05:57;;;;;;;9.87;6.80;;;16.70;65.10;;;;;;4916883;29;20704;-84
2021/04/21 12:08:29;;;;;;;8.50;6.57;;;16.70;64.40;;;;;;4919271;29;20222;-83
2021/04/21 12:11:02;;;;;;;9.30;6.80;;;16.70;64.50;;;;;;4923403;29;20213;-83
2021/04/21 12:13:31;;;;;;;10.07;6.60;;;16.80;64.00;;;;;;4934651;28;20272;-85
2021/04/21 12:16:07;;;;;;;7.83;6.63;;;16.90;64.30;;;;;;4935690;29;20309;-82
2021/04/21 12:18:37;;;;;;;8.67;7.10;;;17.00;64.70;;;;;;4930522;29;20205;-82
2021/04/21 12:21:21;;;;;;;11.33;7.17;;;17.00;64.50;;;;;;4934465;29;20194;-85
2021/04/21 12:23:53;;;;;;;9.50;6.73;;;16.90;64.90;;;;;;4932244;28;20236;-83
2021/04/21 12:26:23;;;;;;;7.87;6.40;;;17.00;65.50;;;;;;4931724;28;20213;-84
2021/04/21 12:28:54;;;;;;;9.77;6.80;;;17.20;64.50;;;;;;4928353;29;20555;-84
2021/04/21 12:31:23;;;;;;;11.37;7.07;;;17.30;64.30;;;;;;4936380;28;20230;-85
2021/04/21 12:33:54;;;;;;;8.93;6.87;;;17.40;64.20;;;;;;4932202;29;20773;-84
2021/04/21 12:36:26;;;;;;;9.23;6.57;;;17.40;64.80;;;;;;4935517;28;20215;-86
2021/04/21 12:39:06;;;;;;;9.17;6.57;;;17.60;65.60;;;;;;4940796;28;21542;-84
2021/04/21 12:41:35;;;;;;;11.50;7.47;;;17.70;64.70;;;;;;4940850;28;20249;-82
2021/04/21 12:44:20;;;;;;;10.13;6.53;;;17.50;64.30;;;;;;4943061;28;20206;-85
2021/04/21 12:46:50;;;;;;;9.93;7.67;;;17.60;64.60;;;;;;4922678;28;20218;-84
2021/04/21 12:49:33;;;;;;;9.70;7.17;;;17.50;64.50;;;;;;4932347;28;20337;-84
2021/04/21 12:52:01;;;;;;;8.67;6.90;;;17.50;63.40;;;;;;4929885;28;20272;-85
2021/04/21 12:54:32;;;;;;;10.43;6.97;;;17.50;63.90;;;;;;4930774;28;20206;-83
2021/04/21 12:57:00;;;;;;;9.40;6.90;;;17.60;64.60;;;;;;4925893;28;20817;-85
2021/04/21 12:59:38;;;;;;;10.10;6.90;;;17.70;63.10;;;;;;4926986;28;20209;-84
2021/04/21 13:02:06;;;;;;;11.30;7.20;;;17.70;63.90;;;;;;4935306;29;20581;-83
2021/04/21 13:04:38;;;;;;;8.30;7.43;;;17.80;63.30;;;;;;4931969;28;20237;-83
2021/04/21 13:07:15;;;;;;;10.20;7.30;;;17.90;63.90;;;;;;4940835;28;20215;-83
2021/04/21 13:09:44;;;;;;;9.20;7.10;;;17.90;63.40;;;;;;4940008;28;20237;-82